sensor_id;sensor_type;location;lat;lon;timestamp;P1;durP1;ratioP1;P2;durP2;ratioP2
74810;SDS011;63340;48.404;-4.506;2023-02-22T00:00:36;41.75;;;35.25;;
74810;SDS011;63340;48.404;-4.506;2023-02-22T00:03:08;42.25;;;35.25;;
74810;SDS011;63340;48.404;-4.506;2023-02-22T00:05:39;38.50;;;34.50;;
74810;SDS011;63340;48.404;-4.506;2023-02-22T00:08:09;42.50;;;36.25;;
74810;SDS011;63340;48.404;-4.506;2023-02-22T00:10:35;43.75;;;38.25;;
74810;SDS011;63340;48.404;-4.506;2023-02-22T00:13:05;47.75;;;40.25;;
74810;SDS011;63340;48.404;-4.506;2023-02-22T00:15:33;43.75;;;36.50;;
74810;SDS011;63340;48.404;-4.506;2023-02-22T00:17:59;37.00;;;33.75;;
74810;SDS011;63340;48.404;-4.506;2023-02-22T00:20:25;38.75;;;35.00;;
74810;SDS011;63340;48.404;-4.506;2023-02-22T00:22:51;41.25;;;35.25;;
74810;SDS011;63340;48.404;-4.506;2023-02-22T00:25:21;41.00;;;36.75;;
74810;SDS011;63340;48.404;-4.506;2023-02-22T00:27:48;38.75;;;34.75;;
74810;SDS011;63340;48.404;-4.506;2023-02-22T00:30:18;40.75;;;35.50;;
74810;SDS011;63340;48.404;-4.506;2023-02-22T00:32:48;37.50;;;34.75;;
74810;SDS011;63340;48.404;-4.506;2023-02-22T00:35:28;44.25;;;38.25;;
74810;SDS011;63340;48.404;-4.506;2023-02-22T00:38:06;31.25;;;28.50;;
74810;SDS011;63340;48.404;-4.506;2023-02-22T00:40:33;39.50;;;34.75;;
74810;SDS011;63340;48.404;-4.506;2023-02-22T00:43:03;37.75;;;34.50;;
74810;SDS011;63340;48.404;-4.506;2023-02-22T00:45:30;31.25;;;30.00;;
74810;SDS011;63340;48.404;-4.506;2023-02-22T00:48:01;36.50;;;32.25;;
74810;SDS011;63340;48.404;-4.506;2023-02-22T00:50:28;32.50;;;32.00;;
74810;SDS011;63340;48.404;-4.506;2023-02-22T00:52:55;39.75;;;33.75;;
74810;SDS011;63340;48.404;-4.506;2023-02-22T00:55:26;33.75;;;31.50;;
74810;SDS011;63340;48.404;-4.506;2023-02-22T00:57:53;33.50;;;32.00;;
74810;SDS011;63340;48.404;-4.506;2023-02-22T01:00:26;31.75;;;31.50;;
74810;SDS011;63340;48.404;-4.506;2023-02-22T01:02:58;32.25;;;30.00;;
74810;SDS011;63340;48.404;-4.506;2023-02-22T01:05:30;30.25;;;30.25;;
74810;SDS011;63340;48.404;-4.506;2023-02-22T01:07:59;29.25;;;28.25;;
74810;SDS011;63340;48.404;-4.506;2023-02-22T01:10:29;26.00;;;24.75;;
74810;SDS011;63340;48.404;-4.506;2023-02-22T01:13:01;30.75;;;29.50;;
74810;SDS011;63340;48.404;-4.506;2023-02-22T01:15:33;29.00;;;27.25;;
74810;SDS011;63340;48.404;-4.506;2023-02-22T01:18:03;25.25;;;23.75;;
74810;SDS011;63340;48.404;-4.506;2023-02-22T01:20:32;31.00;;;29.75;;
74810;SDS011;63340;48.404;-4.506;2023-02-22T01:22:58;30.75;;;28.75;;
74810;SDS011;63340;48.404;-4.506;2023-02-22T01:25:28;25.50;;;24.50;;
74810;SDS011;63340;48.404;-4.506;2023-02-22T01:27:55;25.50;;;23.25;;
74810;SDS011;63340;48.404;-4.506;2023-02-22T01:30:30;24.25;;;23.50;;
74810;SDS011;63340;48.404;-4.506;2023-02-22T01:32:58;25.25;;;22.50;;
74810;SDS011;63340;48.404;-4.506;2023-02-22T01:35:30;27.50;;;24.00;;
74810;SDS011;63340;48.404;-4.506;2023-02-22T01:38:00;21.00;;;19.75;;
74810;SDS011;63340;48.404;-4.506;2023-02-22T01:40:48;22.25;;;21.50;;
74810;SDS011;63340;48.404;-4.506;2023-02-22T01:43:21;22.75;;;22.25;;
74810;SDS011;63340;48.404;-4.506;2023-02-22T01:45:52;20.25;;;19.50;;
74810;SDS011;63340;48.404;-4.506;2023-02-22T01:48:34;20.50;;;19.25;;
74810;SDS011;63340;48.404;-4.506;2023-02-22T01:56:21;20.25;;;19.75;;
74810;SDS011;63340;48.404;-4.506;2023-02-22T01:59:00;16.00;;;16.00;;
74810;SDS011;63340;48.404;-4.506;2023-02-22T02:01:32;14.25;;;13.25;;
74810;SDS011;63340;48.404;-4.506;2023-02-22T02:04:02;12.50;;;11.75;;
74810;SDS011;63340;48.404;-4.506;2023-02-22T02:06:32;18.00;;;17.00;;
74810;SDS011;63340;48.404;-4.506;2023-02-22T02:11:52;17.50;;;17.50;;
74810;SDS011;63340;48.404;-4.506;2023-02-22T02:14:18;15.25;;;15.25;;
74810;SDS011;63340;48.404;-4.506;2023-02-22T02:16:45;14.75;;;12.00;;
74810;SDS011;63340;48.404;-4.506;2023-02-22T02:19:23;15.50;;;15.50;;
74810;SDS011;63340;48.404;-4.506;2023-02-22T02:36:46;16.50;;;15.25;;
74810;SDS011;63340;48.404;-4.506;2023-02-22T02:39:38;14.75;;;13.50;;
74810;SDS011;63340;48.404;-4.506;2023-02-22T02:42:15;16.00;;;15.00;;
74810;SDS011;63340;48.404;-4.506;2023-02-22T02:47:47;16.25;;;15.75;;
74810;SDS011;63340;48.404;-4.506;2023-02-22T02:50:22;13.75;;;13.25;;
74810;SDS011;63340;48.404;-4.506;2023-02-22T02:52:52;14.75;;;13.50;;
74810;SDS011;63340;48.404;-4.506;2023-02-22T02:55:20;11.00;;;11.00;;
74810;SDS011;63340;48.404;-4.506;2023-02-22T02:57:46;10.25;;;9.00;;
74810;SDS011;63340;48.404;-4.506;2023-02-22T03:00:14;17.00;;;14.25;;
74810;SDS011;63340;48.404;-4.506;2023-02-22T03:11:22;7.00;;;7.00;;
74810;SDS011;63340;48.404;-4.506;2023-02-22T03:22:06;10.75;;;10.50;;
74810;SDS011;63340;48.404;-4.506;2023-02-22T03:24:44;13.00;;;12.75;;
74810;SDS011;63340;48.404;-4.506;2023-02-22T03:27:27;12.00;;;11.25;;
74810;SDS011;63340;48.404;-4.506;2023-02-22T03:30:06;7.50;;;7.25;;
74810;SDS011;63340;48.404;-4.506;2023-02-22T03:32:42;13.50;;;12.25;;
74810;SDS011;63340;48.404;-4.506;2023-02-22T03:35:23;11.00;;;10.50;;
74810;SDS011;63340;48.404;-4.506;2023-02-22T03:37:55;12.00;;;10.25;;
74810;SDS011;63340;48.404;-4.506;2023-02-22T03:40:33;8.75;;;7.25;;
74810;SDS011;63340;48.404;-4.506;2023-02-22T03:43:07;10.00;;;9.00;;
74810;SDS011;63340;48.404;-4.506;2023-02-22T03:45:38;8.25;;;8.25;;
74810;SDS011;63340;48.404;-4.506;2023-02-22T03:48:13;9.50;;;8.00;;
74810;SDS011;63340;48.404;-4.506;2023-02-22T03:50:46;7.50;;;7.00;;
74810;SDS011;63340;48.404;-4.506;2023-02-22T03:53:12;9.25;;;8.25;;
74810;SDS011;63340;48.404;-4.506;2023-02-22T03:55:38;7.00;;;7.00;;
74810;SDS011;63340;48.404;-4.506;2023-02-22T03:58:08;8.75;;;7.75;;
74810;SDS011;63340;48.404;-4.506;2023-02-22T04:00:36;6.00;;;5.50;;
74810;SDS011;63340;48.404;-4.506;2023-02-22T04:03:02;8.75;;;8.00;;
74810;SDS011;63340;48.404;-4.506;2023-02-22T04:05:28;8.75;;;8.75;;
74810;SDS011;63340;48.404;-4.506;2023-02-22T04:07:54;8.75;;;8.00;;
74810;SDS011;63340;48.404;-4.506;2023-02-22T04:10:21;9.50;;;8.00;;
74810;SDS011;63340;48.404;-4.506;2023-02-22T04:12:48;9.75;;;9.75;;
74810;SDS011;63340;48.404;-4.506;2023-02-22T04:15:15;10.00;;;10.00;;
74810;SDS011;63340;48.404;-4.506;2023-02-22T04:17:44;9.00;;;8.75;;
74810;SDS011;63340;48.404;-4.506;2023-02-22T04:20:13;10.75;;;9.25;;
74810;SDS011;63340;48.404;-4.506;2023-02-22T04:22:41;9.75;;;9.75;;
74810;SDS011;63340;48.404;-4.506;2023-02-22T04:25:07;8.50;;;8.50;;
74810;SDS011;63340;48.404;-4.506;2023-02-22T04:27:33;9.25;;;8.75;;
74810;SDS011;63340;48.404;-4.506;2023-02-22T04:29:58;11.75;;;10.00;;
74810;SDS011;63340;48.404;-4.506;2023-02-22T04:32:27;9.50;;;9.00;;
74810;SDS011;63340;48.404;-4.506;2023-02-22T04:34:53;11.00;;;10.00;;
74810;SDS011;63340;48.404;-4.506;2023-02-22T04:37:28;10.00;;;9.25;;
74810;SDS011;63340;48.404;-4.506;2023-02-22T04:39:56;10.50;;;9.75;;
74810;SDS011;63340;48.404;-4.506;2023-02-22T04:42:36;10.00;;;10.00;;
74810;SDS011;63340;48.404;-4.506;2023-02-22T04:45:16;10.00;;;10.00;;
74810;SDS011;63340;48.404;-4.506;2023-02-22T04:48:00;8.00;;;8.00;;
74810;SDS011;63340;48.404;-4.506;2023-02-22T04:50:26;9.25;;;8.50;;
74810;SDS011;63340;48.404;-4.506;2023-02-22T04:52:54;10.50;;;10.25;;
74810;SDS011;63340;48.404;-4.506;2023-02-22T04:55:20;9.00;;;8.00;;
74810;SDS011;63340;48.404;-4.506;2023-02-22T04:57:46;8.50;;;7.50;;
74810;SDS011;63340;48.404;-4.506;2023-02-22T05:00:14;8.00;;;8.00;;
74810;SDS011;63340;48.404;-4.506;2023-02-22T05:02:41;7.00;;;6.25;;
74810;SDS011;63340;48.404;-4.506;2023-02-22T05:05:06;6.25;;;6.25;;
74810;SDS011;63340;48.404;-4.506;2023-02-22T05:07:32;6.00;;;6.00;;
74810;SDS011;63340;48.404;-4.506;2023-02-22T05:09:58;6.00;;;5.00;;
74810;SDS011;63340;48.404;-4.506;2023-02-22T05:12:26;2.25;;;2.25;;
74810;SDS011;63340;48.404;-4.506;2023-02-22T05:15:01;0.50;;;0.50;;
74810;SDS011;63340;48.404;-4.506;2023-02-22T05:17:27;0.00;;;0.00;;
74810;SDS011;63340;48.404;-4.506;2023-02-22T05:19:56;0.00;;;0.00;;
74810;SDS011;63340;48.404;-4.506;2023-02-22T05:22:28;0.25;;;0.00;;
74810;SDS011;63340;48.404;-4.506;2023-02-22T05:24:57;0.00;;;0.00;;
74810;SDS011;63340;48.404;-4.506;2023-02-22T05:27:22;0.00;;;0.00;;
74810;SDS011;63340;48.404;-4.506;2023-02-22T05:30:13;0.75;;;0.75;;
74810;SDS011;63340;48.404;-4.506;2023-02-22T05:32:48;0.00;;;0.00;;
74810;SDS011;63340;48.404;-4.506;2023-02-22T05:35:39;0.00;;;0.00;;
74810;SDS011;63340;48.404;-4.506;2023-02-22T05:41:47;0.00;;;0.00;;
74810;SDS011;63340;48.404;-4.506;2023-02-22T05:55:14;0.50;;;0.00;;
74810;SDS011;63340;48.404;-4.506;2023-02-22T05:57:47;1.00;;;0.00;;
74810;SDS011;63340;48.404;-4.506;2023-02-22T06:00:17;0.25;;;0.25;;
74810;SDS011;63340;48.404;-4.506;2023-02-22T06:02:52;1.00;;;1.00;;
74810;SDS011;63340;48.404;-4.506;2023-02-22T06:05:27;1.00;;;1.00;;
74810;SDS011;63340;48.404;-4.506;2023-02-22T06:08:11;0.75;;;0.00;;
74810;SDS011;63340;48.404;-4.506;2023-02-22T06:10:45;0.25;;;0.00;;
74810;SDS011;63340;48.404;-4.506;2023-02-22T06:13:14;0.00;;;0.00;;
74810;SDS011;63340;48.404;-4.506;2023-02-22T06:15:40;0.00;;;0.00;;
74810;SDS011;63340;48.404;-4.506;2023-02-22T06:21:26;1.00;;;1.00;;
74810;SDS011;63340;48.404;-4.506;2023-02-22T06:24:02;1.00;;;0.00;;
74810;SDS011;63340;48.404;-4.506;2023-02-22T06:26:28;1.00;;;0.00;;
74810;SDS011;63340;48.404;-4.506;2023-02-22T06:28:54;1.00;;;0.00;;
74810;SDS011;63340;48.404;-4.506;2023-02-22T06:31:23;1.00;;;0.00;;
74810;SDS011;63340;48.404;-4.506;2023-02-22T06:33:51;3.00;;;1.00;;
74810;SDS011;63340;48.404;-4.506;2023-02-22T06:36:22;2.25;;;0.25;;
74810;SDS011;63340;48.404;-4.506;2023-02-22T06:38:51;0.00;;;0.00;;
74810;SDS011;63340;48.404;-4.506;2023-02-22T06:41:16;1.00;;;1.00;;
74810;SDS011;63340;48.404;-4.506;2023-02-22T06:43:48;4.00;;;1.00;;
74810;SDS011;63340;48.404;-4.506;2023-02-22T06:46:13;1.00;;;0.50;;
74810;SDS011;63340;48.404;-4.506;2023-02-22T06:48:43;1.25;;;1.00;;
74810;SDS011;63340;48.404;-4.506;2023-02-22T06:51:12;0.25;;;0.25;;
74810;SDS011;63340;48.404;-4.506;2023-02-22T06:53:41;4.75;;;1.00;;
74810;SDS011;63340;48.404;-4.506;2023-02-22T06:56:07;1.00;;;0.75;;
74810;SDS011;63340;48.404;-4.506;2023-02-22T06:58:35;0.75;;;0.75;;
74810;SDS011;63340;48.404;-4.506;2023-02-22T07:01:00;1.25;;;1.25;;
74810;SDS011;63340;48.404;-4.506;2023-02-22T07:03:27;1.50;;;0.00;;
74810;SDS011;63340;48.404;-4.506;2023-02-22T07:05:56;3.00;;;1.00;;
74810;SDS011;63340;48.404;-4.506;2023-02-22T07:08:24;0.50;;;0.50;;
74810;SDS011;63340;48.404;-4.506;2023-02-22T07:10:50;0.50;;;0.50;;
74810;SDS011;63340;48.404;-4.506;2023-02-22T07:13:17;0.00;;;0.00;;
74810;SDS011;63340;48.404;-4.506;2023-02-22T07:15:45;2.00;;;1.00;;
74810;SDS011;63340;48.404;-4.506;2023-02-22T07:18:11;1.00;;;0.25;;
74810;SDS011;63340;48.404;-4.506;2023-02-22T07:20:38;3.25;;;0.25;;
74810;SDS011;63340;48.404;-4.506;2023-02-22T07:23:14;0.00;;;0.00;;
74810;SDS011;63340;48.404;-4.506;2023-02-22T07:25:41;0.50;;;0.50;;
74810;SDS011;63340;48.404;-4.506;2023-02-22T07:28:06;0.00;;;0.00;;
74810;SDS011;63340;48.404;-4.506;2023-02-22T07:30:35;2.50;;;1.50;;
74810;SDS011;63340;48.404;-4.506;2023-02-22T07:33:02;1.25;;;0.50;;
74810;SDS011;63340;48.404;-4.506;2023-02-22T07:35:29;2.50;;;1.50;;
74810;SDS011;63340;48.404;-4.506;2023-02-22T07:37:56;1.00;;;0.00;;
74810;SDS011;63340;48.404;-4.506;2023-02-22T07:40:23;1.00;;;1.00;;
74810;SDS011;63340;48.404;-4.506;2023-02-22T07:45:27;0.75;;;0.50;;
74810;SDS011;63340;48.404;-4.506;2023-02-22T07:47:54;2.75;;;1.75;;
74810;SDS011;63340;48.404;-4.506;2023-02-22T07:50:20;0.00;;;0.00;;
74810;SDS011;63340;48.404;-4.506;2023-02-22T07:52:47;0.75;;;0.75;;
74810;SDS011;63340;48.404;-4.506;2023-02-22T07:55:14;4.50;;;0.00;;
74810;SDS011;63340;48.404;-4.506;2023-02-22T07:57:44;2.00;;;0.75;;
74810;SDS011;63340;48.404;-4.506;2023-02-22T08:00:11;0.00;;;0.00;;
74810;SDS011;63340;48.404;-4.506;2023-02-22T08:02:39;2.25;;;1.00;;
74810;SDS011;63340;48.404;-4.506;2023-02-22T08:05:05;2.00;;;1.00;;
74810;SDS011;63340;48.404;-4.506;2023-02-22T08:07:31;2.00;;;0.75;;
74810;SDS011;63340;48.404;-4.506;2023-02-22T08:09:56;1.00;;;1.00;;
74810;SDS011;63340;48.404;-4.506;2023-02-22T08:12:22;0.00;;;0.00;;
74810;SDS011;63340;48.404;-4.506;2023-02-22T08:14:48;0.75;;;0.75;;
74810;SDS011;63340;48.404;-4.506;2023-02-22T08:17:13;2.50;;;2.00;;
74810;SDS011;63340;48.404;-4.506;2023-02-22T08:19:38;1.25;;;1.00;;
74810;SDS011;63340;48.404;-4.506;2023-02-22T08:22:04;2.00;;;1.00;;
74810;SDS011;63340;48.404;-4.506;2023-02-22T08:24:29;2.00;;;0.75;;
74810;SDS011;63340;48.404;-4.506;2023-02-22T08:26:56;1.00;;;1.00;;
74810;SDS011;63340;48.404;-4.506;2023-02-22T08:29:22;2.00;;;0.25;;
74810;SDS011;63340;48.404;-4.506;2023-02-22T08:31:50;1.75;;;1.00;;
74810;SDS011;63340;48.404;-4.506;2023-02-22T08:34:18;1.25;;;0.75;;
74810;SDS011;63340;48.404;-4.506;2023-02-22T08:36:44;1.00;;;1.00;;
74810;SDS011;63340;48.404;-4.506;2023-02-22T08:39:09;1.00;;;1.00;;
74810;SDS011;63340;48.404;-4.506;2023-02-22T08:41:35;0.50;;;0.50;;
74810;SDS011;63340;48.404;-4.506;2023-02-22T08:44:00;1.50;;;1.25;;
74810;SDS011;63340;48.404;-4.506;2023-02-22T08:46:26;3.00;;;1.25;;
74810;SDS011;63340;48.404;-4.506;2023-02-22T08:48:52;3.75;;;2.00;;
74810;SDS011;63340;48.404;-4.506;2023-02-22T08:51:18;0.25;;;0.25;;
74810;SDS011;63340;48.404;-4.506;2023-02-22T08:53:44;1.00;;;0.00;;
74810;SDS011;63340;48.404;-4.506;2023-02-22T08:56:10;0.50;;;0.00;;
74810;SDS011;63340;48.404;-4.506;2023-02-22T08:58:35;1.00;;;1.00;;
74810;SDS011;63340;48.404;-4.506;2023-02-22T09:01:02;1.00;;;0.25;;
74810;SDS011;63340;48.404;-4.506;2023-02-22T09:03:28;0.75;;;0.75;;
74810;SDS011;63340;48.404;-4.506;2023-02-22T09:05:53;1.00;;;0.00;;
74810;SDS011;63340;48.404;-4.506;2023-02-22T09:08:19;1.00;;;0.00;;
74810;SDS011;63340;48.404;-4.506;2023-02-22T09:10:48;0.00;;;0.00;;
74810;SDS011;63340;48.404;-4.506;2023-02-22T09:13:16;0.00;;;0.00;;
74810;SDS011;63340;48.404;-4.506;2023-02-22T09:15:41;0.50;;;0.00;;
74810;SDS011;63340;48.404;-4.506;2023-02-22T09:18:07;0.00;;;0.00;;
74810;SDS011;63340;48.404;-4.506;2023-02-22T09:20:34;1.00;;;1.00;;
74810;SDS011;63340;48.404;-4.506;2023-02-22T09:23:01;1.00;;;0.00;;
74810;SDS011;63340;48.404;-4.506;2023-02-22T09:25:27;1.25;;;0.00;;
74810;SDS011;63340;48.404;-4.506;2023-02-22T09:27:53;2.00;;;0.00;;
74810;SDS011;63340;48.404;-4.506;2023-02-22T09:30:24;0.25;;;0.00;;
74810;SDS011;63340;48.404;-4.506;2023-02-22T09:32:59;0.00;;;0.00;;
74810;SDS011;63340;48.404;-4.506;2023-02-22T09:35:26;1.00;;;1.00;;
74810;SDS011;63340;48.404;-4.506;2023-02-22T09:37:55;1.00;;;1.00;;
74810;SDS011;63340;48.404;-4.506;2023-02-22T09:40:23;0.25;;;0.25;;
74810;SDS011;63340;48.404;-4.506;2023-02-22T09:45:50;1.00;;;0.00;;
74810;SDS011;63340;48.404;-4.506;2023-02-22T09:48:19;0.75;;;0.75;;
74810;SDS011;63340;48.404;-4.506;2023-02-22T09:50:46;1.00;;;0.00;;
74810;SDS011;63340;48.404;-4.506;2023-02-22T09:55:53;1.00;;;1.00;;
74810;SDS011;63340;48.404;-4.506;2023-02-22T09:58:25;0.00;;;0.00;;
74810;SDS011;63340;48.404;-4.506;2023-02-22T10:00:59;1.00;;;0.25;;
74810;SDS011;63340;48.404;-4.506;2023-02-22T10:03:46;0.00;;;0.00;;
74810;SDS011;63340;48.404;-4.506;2023-02-22T10:06:16;0.00;;;0.00;;
74810;SDS011;63340;48.404;-4.506;2023-02-22T10:08:45;1.00;;;0.75;;
74810;SDS011;63340;48.404;-4.506;2023-02-22T10:16:59;0.00;;;0.00;;
74810;SDS011;63340;48.404;-4.506;2023-02-22T10:19:31;0.00;;;0.00;;
74810;SDS011;63340;48.404;-4.506;2023-02-22T10:27:16;0.00;;;0.00;;
74810;SDS011;63340;48.404;-4.506;2023-02-22T10:29:45;0.00;;;0.00;;
74810;SDS011;63340;48.404;-4.506;2023-02-22T10:32:22;0.00;;;0.00;;
74810;SDS011;63340;48.404;-4.506;2023-02-22T10:34:52;0.50;;;0.00;;
74810;SDS011;63340;48.404;-4.506;2023-02-22T10:39:50;0.00;;;0.00;;
74810;SDS011;63340;48.404;-4.506;2023-02-22T10:42:21;0.00;;;0.00;;
74810;SDS011;63340;48.404;-4.506;2023-02-22T10:44:51;0.00;;;0.00;;
74810;SDS011;63340;48.404;-4.506;2023-02-22T10:47:17;0.50;;;0.00;;
74810;SDS011;63340;48.404;-4.506;2023-02-22T10:49:57;1.00;;;0.00;;
74810;SDS011;63340;48.404;-4.506;2023-02-22T10:52:29;0.00;;;0.00;;
74810;SDS011;63340;48.404;-4.506;2023-02-22T10:54:57;0.50;;;0.00;;
74810;SDS011;63340;48.404;-4.506;2023-02-22T10:57:26;0.00;;;0.00;;
74810;SDS011;63340;48.404;-4.506;2023-02-22T10:59:54;0.75;;;0.00;;
74810;SDS011;63340;48.404;-4.506;2023-02-22T11:02:28;0.00;;;0.00;;
74810;SDS011;63340;48.404;-4.506;2023-02-22T11:04:57;1.00;;;0.25;;
74810;SDS011;63340;48.404;-4.506;2023-02-22T11:09:57;0.25;;;0.25;;
74810;SDS011;63340;48.404;-4.506;2023-02-22T11:12:33;3.25;;;0.00;;
74810;SDS011;63340;48.404;-4.506;2023-02-22T11:17:52;0.75;;;0.75;;
74810;SDS011;63340;48.404;-4.506;2023-02-22T11:20:22;1.75;;;1.00;;
74810;SDS011;63340;48.404;-4.506;2023-02-22T11:22:51;1.00;;;1.00;;
74810;SDS011;63340;48.404;-4.506;2023-02-22T11:25:23;2.25;;;1.00;;
74810;SDS011;63340;48.404;-4.506;2023-02-22T11:27:52;0.00;;;0.00;;
74810;SDS011;63340;48.404;-4.506;2023-02-22T11:32:53;1.00;;;0.50;;
74810;SDS011;63340;48.404;-4.506;2023-02-22T11:37:53;1.00;;;1.00;;
74810;SDS011;63340;48.404;-4.506;2023-02-22T11:40:34;1.00;;;1.00;;
74810;SDS011;63340;48.404;-4.506;2023-02-22T11:43:13;0.00;;;0.00;;
74810;SDS011;63340;48.404;-4.506;2023-02-22T11:45:58;1.00;;;0.25;;
74810;SDS011;63340;48.404;-4.506;2023-02-22T11:48:33;0.50;;;0.50;;
74810;SDS011;63340;48.404;-4.506;2023-02-22T11:56:36;0.00;;;0.00;;
74810;SDS011;63340;48.404;-4.506;2023-02-22T11:59:15;0.00;;;0.00;;
74810;SDS011;63340;48.404;-4.506;2023-02-22T12:10:19;0.00;;;0.00;;
74810;SDS011;63340;48.404;-4.506;2023-02-22T12:13:08;1.00;;;0.00;;
74810;SDS011;63340;48.404;-4.506;2023-02-22T12:15:53;0.00;;;0.00;;
74810;SDS011;63340;48.404;-4.506;2023-02-22T12:21:25;2.00;;;1.25;;
74810;SDS011;63340;48.404;-4.506;2023-02-22T12:26:41;1.50;;;1.00;;
74810;SDS011;63340;48.404;-4.506;2023-02-22T12:31:54;1.00;;;1.00;;
74810;SDS011;63340;48.404;-4.506;2023-02-22T12:34:42;0.00;;;0.00;;
74810;SDS011;63340;48.404;-4.506;2023-02-22T12:37:22;1.00;;;0.00;;
74810;SDS011;63340;48.404;-4.506;2023-02-22T12:43:28;2.75;;;0.75;;
74810;SDS011;63340;48.404;-4.506;2023-02-22T12:49:10;0.00;;;0.00;;
74810;SDS011;63340;48.404;-4.506;2023-02-22T12:51:43;0.00;;;0.00;;
74810;SDS011;63340;48.404;-4.506;2023-02-22T13:04:42;0.00;;;0.00;;
74810;SDS011;63340;48.404;-4.506;2023-02-22T13:07:17;0.25;;;0.00;;
74810;SDS011;63340;48.404;-4.506;2023-02-22T13:23:09;0.50;;;0.50;;
74810;SDS011;63340;48.404;-4.506;2023-02-22T13:29:30;1.00;;;0.50;;
74810;SDS011;63340;48.404;-4.506;2023-02-22T13:45:33;0.00;;;0.00;;
74810;SDS011;63340;48.404;-4.506;2023-02-22T13:56:08;1.75;;;0.00;;
74810;SDS011;63340;48.404;-4.506;2023-02-22T13:58:45;0.50;;;0.00;;
74810;SDS011;63340;48.404;-4.506;2023-02-22T14:01:34;0.00;;;0.00;;
74810;SDS011;63340;48.404;-4.506;2023-02-22T14:06:56;0.50;;;0.00;;
74810;SDS011;63340;48.404;-4.506;2023-02-22T14:09:43;0.00;;;0.00;;
74810;SDS011;63340;48.404;-4.506;2023-02-22T14:17:36;0.00;;;0.00;;
74810;SDS011;63340;48.404;-4.506;2023-02-22T14:22:43;0.75;;;0.00;;
74810;SDS011;63340;48.404;-4.506;2023-02-22T14:27:57;0.00;;;0.00;;
74810;SDS011;63340;48.404;-4.506;2023-02-22T14:30:24;0.00;;;0.00;;
74810;SDS011;63340;48.404;-4.506;2023-02-22T14:32:54;0.25;;;0.25;;
74810;SDS011;63340;48.404;-4.506;2023-02-22T14:35:20;0.00;;;0.00;;
74810;SDS011;63340;48.404;-4.506;2023-02-22T14:37:48;0.00;;;0.00;;
74810;SDS011;63340;48.404;-4.506;2023-02-22T14:40:25;1.00;;;0.75;;
74810;SDS011;63340;48.404;-4.506;2023-02-22T14:42:59;1.25;;;0.00;;
74810;SDS011;63340;48.404;-4.506;2023-02-22T14:45:32;0.00;;;0.00;;
74810;SDS011;63340;48.404;-4.506;2023-02-22T14:48:08;0.00;;;0.00;;
74810;SDS011;63340;48.404;-4.506;2023-02-22T14:50:53;2.00;;;0.00;;
74810;SDS011;63340;48.404;-4.506;2023-02-22T14:56:05;1.00;;;1.00;;
74810;SDS011;63340;48.404;-4.506;2023-02-22T15:01:24;0.00;;;0.00;;
74810;SDS011;63340;48.404;-4.506;2023-02-22T15:03:50;0.75;;;0.75;;
74810;SDS011;63340;48.404;-4.506;2023-02-22T15:06:22;1.00;;;1.00;;
74810;SDS011;63340;48.404;-4.506;2023-02-22T15:09:04;1.00;;;1.00;;
74810;SDS011;63340;48.404;-4.506;2023-02-22T15:11:47;2.00;;;1.00;;
74810;SDS011;63340;48.404;-4.506;2023-02-22T15:14:19;2.25;;;1.75;;
74810;SDS011;63340;48.404;-4.506;2023-02-22T15:16:48;2.50;;;1.00;;
74810;SDS011;63340;48.404;-4.506;2023-02-22T15:19:16;4.00;;;2.00;;
74810;SDS011;63340;48.404;-4.506;2023-02-22T15:21:49;2.50;;;2.50;;
74810;SDS011;63340;48.404;-4.506;2023-02-22T15:24:19;3.25;;;2.75;;
74810;SDS011;63340;48.404;-4.506;2023-02-22T15:26:48;1.00;;;1.00;;
74810;SDS011;63340;48.404;-4.506;2023-02-22T15:29:15;1.25;;;1.25;;
74810;SDS011;63340;48.404;-4.506;2023-02-22T15:31:43;2.00;;;1.50;;
74810;SDS011;63340;48.404;-4.506;2023-02-22T15:36:39;0.00;;;0.00;;
74810;SDS011;63340;48.404;-4.506;2023-02-22T15:39:16;1.00;;;0.00;;
74810;SDS011;63340;48.404;-4.506;2023-02-22T15:41:44;2.00;;;1.00;;
74810;SDS011;63340;48.404;-4.506;2023-02-22T15:44:09;1.00;;;1.00;;
74810;SDS011;63340;48.404;-4.506;2023-02-22T15:46:38;2.00;;;1.25;;
74810;SDS011;63340;48.404;-4.506;2023-02-22T15:49:04;2.25;;;2.25;;
74810;SDS011;63340;48.404;-4.506;2023-02-22T15:51:39;6.50;;;6.50;;
74810;SDS011;63340;48.404;-4.506;2023-02-22T15:54:10;4.25;;;4.25;;
74810;SDS011;63340;48.404;-4.506;2023-02-22T15:56:40;4.00;;;2.75;;
74810;SDS011;63340;48.404;-4.506;2023-02-22T15:59:13;1.00;;;0.75;;
74810;SDS011;63340;48.404;-4.506;2023-02-22T16:01:48;1.00;;;0.00;;
74810;SDS011;63340;48.404;-4.506;2023-02-22T16:04:23;2.00;;;2.00;;
74810;SDS011;63340;48.404;-4.506;2023-02-22T16:06:54;2.75;;;2.75;;
74810;SDS011;63340;48.404;-4.506;2023-02-22T16:09:28;4.25;;;2.75;;
74810;SDS011;63340;48.404;-4.506;2023-02-22T16:12:21;3.00;;;2.50;;
74810;SDS011;63340;48.404;-4.506;2023-02-22T16:14:49;1.50;;;1.50;;
74810;SDS011;63340;48.404;-4.506;2023-02-22T16:19:53;2.00;;;0.00;;
74810;SDS011;63340;48.404;-4.506;2023-02-22T16:22:24;1.00;;;1.00;;
74810;SDS011;63340;48.404;-4.506;2023-02-22T16:24:51;0.00;;;0.00;;
74810;SDS011;63340;48.404;-4.506;2023-02-22T16:27:19;0.50;;;0.00;;
74810;SDS011;63340;48.404;-4.506;2023-02-22T16:30:06;0.00;;;0.00;;
74810;SDS011;63340;48.404;-4.506;2023-02-22T16:32:46;0.50;;;0.50;;
74810;SDS011;63340;48.404;-4.506;2023-02-22T16:35:13;2.00;;;1.00;;
74810;SDS011;63340;48.404;-4.506;2023-02-22T16:37:43;3.50;;;3.50;;
74810;SDS011;63340;48.404;-4.506;2023-02-22T16:40:18;3.00;;;3.00;;
74810;SDS011;63340;48.404;-4.506;2023-02-22T16:42:47;3.00;;;2.75;;
74810;SDS011;63340;48.404;-4.506;2023-02-22T16:45:16;1.00;;;1.00;;
74810;SDS011;63340;48.404;-4.506;2023-02-22T16:47:43;1.00;;;1.00;;
74810;SDS011;63340;48.404;-4.506;2023-02-22T16:50:09;2.00;;;2.00;;
74810;SDS011;63340;48.404;-4.506;2023-02-22T16:52:37;0.25;;;0.25;;
74810;SDS011;63340;48.404;-4.506;2023-02-22T16:55:04;2.25;;;1.00;;
74810;SDS011;63340;48.404;-4.506;2023-02-22T16:57:33;0.75;;;0.25;;
74810;SDS011;63340;48.404;-4.506;2023-02-22T16:59:59;0.25;;;0.00;;
74810;SDS011;63340;48.404;-4.506;2023-02-22T17:02:25;1.00;;;0.00;;
74810;SDS011;63340;48.404;-4.506;2023-02-22T17:04:51;2.25;;;1.00;;
74810;SDS011;63340;48.404;-4.506;2023-02-22T17:07:18;3.00;;;1.25;;
74810;SDS011;63340;48.404;-4.506;2023-02-22T17:09:54;0.50;;;0.00;;
74810;SDS011;63340;48.404;-4.506;2023-02-22T17:16:02;2.00;;;2.00;;
74810;SDS011;63340;48.404;-4.506;2023-02-22T17:19:04;2.00;;;2.00;;
74810;SDS011;63340;48.404;-4.506;2023-02-22T17:25:29;0.25;;;0.25;;
74810;SDS011;63340;48.404;-4.506;2023-02-22T17:28:15;2.00;;;1.50;;
74810;SDS011;63340;48.404;-4.506;2023-02-22T17:30:41;0.00;;;0.00;;
74810;SDS011;63340;48.404;-4.506;2023-02-22T17:33:12;0.00;;;0.00;;
74810;SDS011;63340;48.404;-4.506;2023-02-22T17:36:31;0.75;;;0.00;;
74810;SDS011;63340;48.404;-4.506;2023-02-22T17:39:37;2.00;;;1.50;;
74810;SDS011;63340;48.404;-4.506;2023-02-22T17:42:04;2.00;;;1.00;;
74810;SDS011;63340;48.404;-4.506;2023-02-22T17:44:30;1.00;;;1.00;;
74810;SDS011;63340;48.404;-4.506;2023-02-22T17:47:13;1.00;;;1.00;;
74810;SDS011;63340;48.404;-4.506;2023-02-22T17:49:38;0.00;;;0.00;;
74810;SDS011;63340;48.404;-4.506;2023-02-22T17:52:10;0.00;;;0.00;;
74810;SDS011;63340;48.404;-4.506;2023-02-22T17:54:39;1.50;;;0.25;;
74810;SDS011;63340;48.404;-4.506;2023-02-22T17:57:11;1.25;;;1.00;;
74810;SDS011;63340;48.404;-4.506;2023-02-22T17:59:39;1.00;;;1.00;;
74810;SDS011;63340;48.404;-4.506;2023-02-22T18:02:05;1.00;;;1.00;;
74810;SDS011;63340;48.404;-4.506;2023-02-22T18:04:32;1.00;;;0.75;;
74810;SDS011;63340;48.404;-4.506;2023-02-22T18:06:59;2.00;;;2.00;;
74810;SDS011;63340;48.404;-4.506;2023-02-22T18:09:27;2.00;;;0.75;;
74810;SDS011;63340;48.404;-4.506;2023-02-22T18:11:56;3.75;;;3.00;;